createdAt,value
2022-10-01T00:00:19.484Z,21.37
2022-10-01T00:01:13.314Z,21.37
2022-10-01T00:02:06.896Z,21.38
2022-10-01T00:03:00.579Z,21.35
2022-10-01T00:03:54.206Z,21.40
2022-10-01T00:04:47.814Z,21.37
2022-10-01T00:05:31.497Z,21.34
2022-10-01T00:06:25.126Z,21.34
2022-10-01T00:07:18.747Z,21.34
2022-10-01T00:08:12.371Z,21.34
2022-10-01T00:09:06.003Z,21.35
2022-10-01T00:09:59.625Z,21.35
2022-10-01T00:10:43.305Z,21.38
2022-10-01T00:11:37.009Z,21.34
2022-10-01T00:12:30.559Z,21.44
2022-10-01T00:13:24.186Z,21.38
2022-10-01T00:14:17.822Z,21.25
2022-10-01T00:15:13.532Z,21.38
2022-10-01T00:16:05.077Z,21.34
2022-10-01T00:16:58.759Z,21.30
2022-10-01T00:17:52.304Z,21.32
2022-10-01T00:18:45.926Z,21.28
2022-10-01T00:19:39.555Z,21.23
2022-10-01T00:20:33.176Z,21.30
2022-10-01T00:21:26.789Z,21.29
2022-10-01T00:22:20.420Z,21.30
2022-10-01T00:23:14.036Z,21.38
2022-10-01T00:24:07.667Z,21.34
2022-10-01T00:25:01.289Z,21.25
2022-10-01T00:25:54.902Z,21.25
2022-10-01T00:26:48.537Z,21.25
2022-10-01T00:27:42.148Z,21.26
2022-10-01T00:28:35.775Z,21.30
2022-10-01T00:29:29.410Z,21.34
2022-10-01T00:30:23.031Z,21.26
2022-10-01T00:31:16.733Z,21.23
2022-10-01T00:32:10.277Z,21.23
2022-10-01T00:33:03.895Z,21.25
2022-10-01T00:33:57.518Z,21.25
2022-10-01T00:34:42.719Z,21.22
2022-10-01T00:35:36.371Z,21.28
2022-10-01T00:36:29.983Z,21.26
2022-10-01T00:37:23.623Z,21.23
2022-10-01T00:38:17.236Z,21.29
2022-10-01T00:39:10.855Z,21.32
2022-10-01T00:40:04.478Z,21.23
2022-10-01T00:40:58.110Z,21.23
2022-10-01T00:41:51.735Z,21.25
2022-10-01T00:42:45.351Z,21.30
2022-10-01T00:43:29.041Z,21.25
2022-10-01T00:44:22.662Z,21.28
2022-10-01T00:45:16.310Z,21.26
2022-10-01T00:46:10.052Z,21.26
2022-10-01T00:47:03.538Z,21.22
2022-10-01T00:47:57.207Z,21.28
2022-10-01T00:48:50.780Z,21.25
2022-10-01T00:49:44.402Z,21.26
2022-10-01T00:50:38.032Z,21.23
2022-10-01T00:51:32.055Z,21.26
2022-10-01T00:52:25.318Z,21.25
2022-10-01T00:53:19.003Z,21.25
2022-10-01T00:54:12.629Z,21.23
2022-10-01T00:55:06.261Z,21.26
2022-10-01T00:55:59.879Z,21.14
2022-10-01T00:56:53.499Z,21.20
2022-10-01T00:57:47.121Z,21.19
2022-10-01T00:58:40.742Z,21.28
2022-10-01T00:59:34.372Z,21.20
2022-10-01T01:00:27.997Z,21.25
2022-10-01T01:01:21.647Z,21.11
2022-10-01T01:02:15.276Z,21.29
2022-10-01T01:02:58.921Z,21.18
2022-10-01T01:03:52.580Z,21.19
2022-10-01T01:04:46.175Z,21.20
2022-10-01T01:05:39.800Z,21.28
2022-10-01T01:06:33.429Z,21.16
2022-10-01T01:07:27.054Z,21.19
2022-10-01T01:08:20.665Z,21.22
2022-10-01T01:09:14.287Z,21.20
2022-10-01T01:10:07.914Z,21.14
2022-10-01T01:11:01.572Z,21.22
2022-10-01T01:11:55.257Z,21.23
2022-10-01T01:12:48.927Z,21.22
2022-10-01T01:13:42.616Z,21.16
2022-10-01T01:14:26.292Z,21.19
2022-10-01T01:15:19.934Z,21.16
2022-10-01T01:16:13.690Z,21.19
2022-10-01T01:17:07.177Z,21.28
2022-10-01T01:18:00.792Z,21.20
2022-10-01T01:18:54.437Z,21.20
2022-10-01T01:19:48.063Z,21.22
2022-10-01T01:20:41.660Z,21.13
2022-10-01T01:21:35.522Z,21.20
2022-10-01T01:22:28.911Z,21.19
2022-10-01T01:23:22.540Z,21.10
2022-10-01T01:24:16.166Z,21.11
2022-10-01T01:25:09.772Z,21.16
2022-10-01T01:26:03.403Z,21.14
2022-10-01T01:26:57.031Z,21.11
2022-10-01T01:27:50.837Z,21.16
2022-10-01T01:28:44.386Z,21.10
2022-10-01T01:29:37.999Z,21.14
2022-10-01T01:30:31.629Z,21.08
2022-10-01T01:31:25.367Z,21.19
2022-10-01T01:32:18.875Z,21.08
2022-10-01T01:33:12.487Z,21.16
2022-10-01T01:34:06.132Z,21.16
2022-10-01T01:34:59.837Z,21.05
2022-10-01T01:35:53.456Z,21.11
2022-10-01T01:36:47.084Z,21.11
2022-10-01T01:37:40.705Z,21.11
2022-10-01T01:38:34.334Z,21.11
2022-10-01T01:39:27.973Z,21.10
2022-10-01T01:40:21.568Z,21.18
2022-10-01T01:41:15.207Z,21.11
2022-10-01T01:42:08.939Z,21.13
2022-10-01T01:43:02.547Z,21.14
2022-10-01T01:43:56.170Z,21.14
2022-10-01T01:44:49.802Z,21.14
2022-10-01T01:45:43.479Z,21.08
2022-10-01T01:46:37.041Z,21.14
2022-10-01T01:47:30.659Z,21.11
2022-10-01T01:48:24.279Z,21.08
2022-10-01T01:49:17.948Z,21.08
2022-10-01T01:50:11.538Z,21.16
2022-10-01T01:51:05.147Z,21.16
2022-10-01T01:51:58.769Z,21.13
2022-10-01T01:52:52.399Z,21.11
2022-10-01T01:53:46.024Z,21.07
2022-10-01T01:54:39.650Z,21.08
2022-10-01T01:55:33.334Z,21.13
2022-10-01T01:56:26.999Z,21.11
2022-10-01T01:57:20.623Z,21.16
2022-10-01T01:58:14.240Z,21.11
2022-10-01T01:59:07.864Z,21.18
2022-10-01T02:00:01.482Z,21.16
2022-10-01T02:00:55.107Z,21.14
2022-10-01T02:01:48.815Z,21.16
2022-10-01T02:02:42.434Z,21.07
2022-10-01T02:03:35.977Z,21.07
2022-10-01T02:04:29.652Z,21.10
2022-10-01T02:05:23.321Z,21.13
2022-10-01T02:06:16.962Z,21.14
2022-10-01T02:07:10.581Z,21.14
2022-10-01T02:08:04.198Z,21.11
2022-10-01T02:08:57.843Z,21.08
2022-10-01T02:09:51.452Z,21.04
2022-10-01T02:10:45.058Z,21.16
2022-10-01T02:11:38.697Z,21.14
2022-10-01T02:12:32.305Z,21.07
2022-10-01T02:13:25.963Z,21.10
2022-10-01T02:14:19.661Z,21.11
2022-10-01T02:15:13.285Z,21.08
2022-10-01T02:16:06.988Z,21.11
2022-10-01T02:17:00.552Z,21.16
2022-10-01T02:17:54.246Z,21.11
2022-10-01T02:18:47.878Z,21.10
2022-10-01T02:19:41.514Z,21.05
2022-10-01T02:20:35.151Z,21.14
2022-10-01T02:21:28.849Z,21.11
2022-10-01T02:22:22.481Z,21.11
2022-10-01T02:23:16.101Z,21.14
2022-10-01T02:24:09.712Z,21.04
2022-10-01T02:25:03.340Z,21.07
2022-10-01T02:25:56.952Z,21.07
2022-10-01T02:26:50.588Z,20.98
2022-10-01T02:27:44.277Z,21.10
2022-10-01T02:28:37.831Z,21.13
2022-10-01T02:29:31.459Z,21.05
2022-10-01T02:30:25.069Z,21.07
2022-10-01T02:31:18.765Z,21.05
2022-10-01T02:32:12.319Z,21.08
2022-10-01T02:33:05.956Z,21.01
2022-10-01T02:33:59.570Z,21.03
2022-10-01T02:34:53.204Z,21.08
2022-10-01T02:35:46.826Z,21.03
2022-10-01T02:36:40.450Z,21.08
2022-10-01T02:37:34.062Z,21.08
2022-10-01T02:38:27.675Z,21.01
2022-10-01T02:39:21.295Z,21.00
2022-10-01T02:40:14.921Z,21.10
2022-10-01T02:41:08.547Z,21.08
2022-10-01T02:42:02.164Z,20.97
2022-10-01T02:42:55.805Z,21.05
2022-10-01T02:43:49.417Z,21.04
2022-10-01T02:44:43.045Z,21.01
2022-10-01T02:45:36.715Z,20.98
2022-10-01T02:46:30.285Z,21.01
2022-10-01T02:47:23.910Z,21.01
2022-10-01T02:48:17.547Z,21.08
2022-10-01T02:49:11.165Z,21.05
2022-10-01T02:49:54.869Z,21.04
2022-10-01T02:50:48.489Z,20.98
2022-10-01T02:51:42.094Z,21.10
2022-10-01T02:52:35.822Z,20.98
2022-10-01T02:53:29.459Z,21.08
2022-10-01T02:54:23.072Z,21.04
2022-10-01T02:55:16.688Z,20.95
2022-10-01T02:56:10.317Z,21.03
2022-10-01T02:57:03.928Z,20.97
2022-10-01T02:57:57.662Z,21.01
2022-10-01T02:58:51.305Z,21.03
2022-10-01T02:59:44.906Z,20.98
2022-10-01T03:00:38.527Z,21.00
2022-10-01T03:01:32.551Z,21.05
2022-10-01T03:02:25.837Z,21.05
2022-10-01T03:03:19.401Z,21.01
2022-10-01T03:04:13.035Z,20.97
2022-10-01T03:05:06.647Z,21.04
2022-10-01T03:06:00.287Z,21.08
2022-10-01T03:06:53.908Z,21.04
2022-10-01T03:07:47.513Z,21.05
2022-10-01T03:08:41.132Z,21.08
2022-10-01T03:09:34.763Z,21.01
2022-10-01T03:10:28.383Z,20.98
2022-10-01T03:11:22.008Z,21.01
2022-10-01T03:12:15.621Z,21.07
2022-10-01T03:13:09.258Z,21.01
2022-10-01T03:14:02.896Z,21.00
2022-10-01T03:14:56.504Z,21.01
2022-10-01T03:15:50.334Z,21.05
2022-10-01T03:16:43.846Z,20.97
2022-10-01T03:17:37.461Z,21.01
2022-10-01T03:18:31.131Z,21.03
2022-10-01T03:19:24.823Z,21.11
2022-10-01T03:20:18.444Z,20.98
2022-10-01T03:21:12.091Z,21.04
2022-10-01T03:22:05.689Z,21.04
2022-10-01T03:22:59.432Z,21.08
2022-10-01T03:23:53.034Z,20.95
2022-10-01T03:24:46.654Z,20.97
2022-10-01T03:25:40.287Z,21.01
2022-10-01T03:26:33.898Z,21.05
2022-10-01T03:27:27.560Z,20.98
2022-10-01T03:28:21.341Z,21.08
2022-10-01T03:29:14.900Z,21.07
2022-10-01T03:29:58.559Z,20.92
2022-10-01T03:30:52.200Z,21.03
2022-10-01T03:31:45.843Z,21.01
2022-10-01T03:32:39.456Z,21.04
2022-10-01T03:33:33.079Z,21.05
2022-10-01T03:34:16.758Z,21.03
2022-10-01T03:35:10.418Z,21.05
2022-10-01T03:36:04.145Z,21.07
2022-10-01T03:36:57.849Z,21.05
2022-10-01T03:37:51.462Z,21.01
2022-10-01T03:38:45.086Z,21.05
2022-10-01T03:39:38.723Z,21.01
2022-10-01T03:40:32.322Z,20.98
2022-10-01T03:41:26.084Z,21.03
2022-10-01T03:42:19.882Z,20.97
2022-10-01T03:43:13.553Z,21.07
2022-10-01T03:44:07.227Z,20.97
2022-10-01T03:45:00.855Z,21.03
2022-10-01T03:45:54.596Z,21.00
2022-10-01T03:46:48.113Z,21.03
2022-10-01T03:47:41.736Z,21.05
2022-10-01T03:48:35.359Z,21.04
2022-10-01T03:49:28.974Z,21.00
2022-10-01T03:50:22.584Z,21.01
2022-10-01T03:51:19.793Z,20.97
2022-10-01T03:52:09.868Z,21.03
2022-10-01T03:53:03.455Z,21.01
2022-10-01T03:53:57.073Z,20.92
2022-10-01T03:54:50.704Z,21.00
2022-10-01T03:55:44.424Z,21.01
2022-10-01T03:56:38.047Z,20.95
2022-10-01T03:57:31.685Z,20.95
2022-10-01T03:58:25.295Z,20.95
2022-10-01T03:59:18.921Z,21.01
2022-10-01T04:00:12.542Z,21.03
2022-10-01T04:01:06.166Z,20.93
2022-10-01T04:01:59.923Z,21.01
2022-10-01T04:02:53.561Z,20.98
2022-10-01T04:03:47.032Z,21.01
2022-10-01T04:04:40.655Z,20.97
2022-10-01T04:05:34.275Z,21.05
2022-10-01T04:06:27.898Z,20.98
2022-10-01T04:07:21.534Z,20.93
2022-10-01T04:08:15.154Z,21.03
2022-10-01T04:09:08.773Z,20.93
2022-10-01T04:10:02.502Z,20.92
2022-10-01T04:10:56.113Z,20.93
2022-10-01T04:11:49.741Z,20.97
2022-10-01T04:12:43.373Z,20.97
2022-10-01T04:13:37.015Z,20.93
2022-10-01T04:14:20.682Z,20.92
2022-10-01T04:15:14.298Z,20.93
2022-10-01T04:16:07.987Z,20.98
2022-10-01T04:17:01.563Z,20.95
2022-10-01T04:17:55.289Z,20.98
2022-10-01T04:18:48.999Z,20.97
2022-10-01T04:19:42.633Z,20.98
2022-10-01T04:20:36.245Z,20.93
2022-10-01T04:21:29.882Z,21.01
2022-10-01T04:22:23.506Z,20.92
2022-10-01T04:23:07.205Z,21.01
2022-10-01T04:24:00.819Z,20.92
2022-10-01T04:24:44.511Z,21.00
2022-10-01T04:25:38.135Z,20.98
2022-10-01T04:26:31.766Z,21.00
2022-10-01T04:27:25.376Z,20.95
2022-10-01T04:28:19.086Z,20.93
2022-10-01T04:29:12.627Z,20.90
2022-10-01T04:30:06.246Z,20.97
2022-10-01T04:30:59.869Z,20.98
2022-10-01T04:31:53.584Z,20.93
2022-10-01T04:32:47.123Z,20.92
2022-10-01T04:33:40.751Z,20.95
2022-10-01T04:34:34.359Z,21.00
2022-10-01T04:35:27.998Z,20.89
2022-10-01T04:36:21.605Z,20.93
2022-10-01T04:37:15.225Z,20.98
2022-10-01T04:38:08.877Z,20.97
2022-10-01T04:39:03.096Z,20.89
2022-10-01T04:39:56.100Z,20.97
2022-10-01T04:40:49.725Z,20.95
2022-10-01T04:41:43.350Z,20.93
2022-10-01T04:42:36.973Z,21.03
2022-10-01T04:43:30.595Z,21.00
2022-10-01T04:44:24.222Z,21.03
2022-10-01T04:45:17.844Z,21.05
2022-10-01T04:46:11.455Z,20.97
2022-10-01T04:47:05.167Z,21.04
2022-10-01T04:47:58.709Z,21.07
2022-10-01T04:48:52.328Z,21.10
2022-10-01T04:49:45.956Z,21.11
2022-10-01T04:50:39.576Z,21.07
2022-10-01T04:51:33.522Z,21.10
2022-10-01T04:52:26.824Z,21.18
2022-10-01T04:53:10.522Z,21.08
2022-10-01T04:54:04.141Z,21.13
2022-10-01T04:54:57.789Z,21.08
2022-10-01T04:55:51.385Z,21.18
2022-10-01T04:56:45.001Z,21.19
2022-10-01T04:57:38.660Z,21.16
2022-10-01T04:58:32.253Z,21.19
2022-10-01T04:59:26.000Z,21.19
2022-10-01T05:00:19.614Z,21.13
2022-10-01T05:01:13.299Z,21.28
2022-10-01T05:02:06.916Z,21.23
2022-10-01T05:03:00.474Z,21.22
2022-10-01T05:03:54.100Z,21.28
2022-10-01T05:04:47.757Z,21.22
2022-10-01T05:05:41.449Z,21.19
2022-10-01T05:06:35.066Z,21.14
2022-10-01T05:07:28.692Z,21.22
2022-10-01T05:08:22.315Z,21.19
2022-10-01T05:09:15.940Z,21.26
2022-10-01T05:10:09.581Z,21.29
2022-10-01T05:11:03.210Z,21.28
2022-10-01T05:11:56.811Z,21.30
2022-10-01T05:12:50.442Z,21.23
2022-10-01T05:13:44.047Z,21.30
2022-10-01T05:14:37.692Z,21.32
2022-10-01T05:15:31.293Z,21.22
2022-10-01T05:16:24.988Z,21.32
2022-10-01T05:17:18.553Z,21.30
2022-10-01T05:18:12.176Z,21.28
2022-10-01T05:19:05.790Z,21.29
2022-10-01T05:19:59.422Z,21.30
2022-10-01T05:20:53.032Z,21.26
2022-10-01T05:21:46.660Z,21.35
2022-10-01T05:22:40.278Z,21.29
2022-10-01T05:23:33.906Z,21.40
2022-10-01T05:24:27.528Z,21.29
2022-10-01T05:25:21.181Z,21.35
2022-10-01T05:26:04.836Z,21.29
2022-10-01T05:26:58.461Z,21.30
2022-10-01T05:27:52.143Z,21.37
2022-10-01T05:28:45.721Z,21.41
2022-10-01T05:29:39.330Z,21.37
2022-10-01T05:30:32.986Z,21.40
2022-10-01T05:31:26.619Z,21.40
2022-10-01T05:32:20.213Z,21.30
2022-10-01T05:33:13.828Z,21.34
2022-10-01T05:34:07.558Z,21.38
2022-10-01T05:35:01.175Z,21.38
2022-10-01T05:35:54.807Z,21.29
2022-10-01T05:36:38.496Z,21.30
2022-10-01T05:37:32.120Z,21.35
2022-10-01T05:38:25.741Z,21.37
2022-10-01T05:39:19.362Z,21.35
2022-10-01T05:40:12.987Z,21.35
2022-10-01T05:41:06.634Z,21.41
2022-10-01T05:42:05.344Z,21.40
2022-10-01T05:42:53.851Z,21.38
2022-10-01T05:43:47.477Z,21.35
2022-10-01T05:44:41.098Z,21.38
2022-10-01T05:45:34.762Z,21.37
2022-10-01T05:46:28.362Z,21.40
2022-10-01T05:47:21.965Z,21.40
2022-10-01T05:48:15.595Z,21.37
2022-10-01T05:49:09.224Z,21.38
2022-10-01T05:50:02.832Z,21.38
2022-10-01T05:50:56.463Z,21.40
2022-10-01T05:51:50.092Z,21.44
2022-10-01T05:52:43.710Z,21.38
2022-10-01T05:53:37.327Z,21.43
2022-10-01T05:54:30.955Z,21.47
2022-10-01T05:55:24.587Z,21.35
2022-10-01T05:56:18.212Z,21.41
2022-10-01T05:57:11.933Z,21.38
2022-10-01T05:58:05.544Z,21.35
2022-10-01T05:58:59.175Z,21.38
2022-10-01T05:59:52.796Z,21.43
2022-10-01T06:00:46.521Z,21.37
2022-10-01T06:01:40.200Z,21.37
2022-10-01T06:02:33.938Z,21.38
2022-10-01T06:03:27.399Z,21.43
2022-10-01T06:04:21.021Z,21.37
2022-10-01T06:05:14.635Z,21.44
2022-10-01T06:06:08.257Z,21.40
2022-10-01T06:07:01.883Z,21.43
2022-10-01T06:07:55.514Z,21.51
2022-10-01T06:08:49.126Z,21.35
2022-10-01T06:09:42.744Z,21.41
2022-10-01T06:10:36.380Z,21.50
2022-10-01T06:11:30.010Z,21.48
2022-10-01T06:12:23.617Z,21.48
2022-10-01T06:13:17.277Z,21.51
2022-10-01T06:14:10.965Z,21.40
2022-10-01T06:15:04.588Z,21.48
2022-10-01T06:15:58.218Z,21.47
2022-10-01T06:16:51.889Z,21.38
2022-10-01T06:17:45.502Z,21.44
2022-10-01T06:18:39.090Z,21.47
2022-10-01T06:19:32.715Z,21.38
2022-10-01T06:20:26.357Z,21.35
2022-10-01T06:21:19.950Z,21.44
2022-10-01T06:22:13.582Z,21.48
2022-10-01T06:22:57.263Z,21.45
2022-10-01T06:23:50.903Z,21.45
2022-10-01T06:24:44.518Z,21.38
2022-10-01T06:25:38.138Z,21.50
2022-10-01T06:26:31.802Z,21.40
2022-10-01T06:27:25.389Z,21.43
2022-10-01T06:28:19.081Z,21.40
2022-10-01T06:29:12.643Z,21.47
2022-10-01T06:30:06.256Z,21.37
2022-10-01T06:30:59.873Z,21.47
2022-10-01T06:31:53.588Z,21.47
2022-10-01T06:32:47.121Z,21.47
2022-10-01T06:33:40.745Z,21.47
2022-10-01T06:34:34.385Z,21.48
2022-10-01T06:35:27.993Z,21.51
2022-10-01T06:36:21.621Z,21.45
2022-10-01T06:37:15.243Z,21.50
2022-10-01T06:38:08.860Z,21.56
2022-10-01T06:39:02.507Z,21.50
2022-10-01T06:39:56.110Z,21.50
2022-10-01T06:40:49.730Z,21.51
2022-10-01T06:41:43.371Z,21.55
2022-10-01T06:42:36.982Z,21.55
2022-10-01T06:43:30.589Z,21.51
2022-10-01T06:44:24.215Z,21.47
2022-10-01T06:45:17.846Z,21.50
2022-10-01T06:46:11.648Z,21.48
2022-10-01T06:47:05.289Z,21.53
2022-10-01T06:47:58.921Z,21.51
2022-10-01T06:48:52.536Z,21.48
2022-10-01T06:49:47.744Z,21.55
2022-10-01T06:50:39.784Z,21.51
2022-10-01T06:51:33.629Z,21.48
2022-10-01T06:52:27.046Z,21.47
2022-10-01T06:53:20.656Z,21.44
2022-10-01T06:54:14.278Z,21.47
2022-10-01T06:55:07.919Z,21.45
2022-10-01T06:56:01.529Z,21.47
2022-10-01T06:56:55.180Z,21.35
2022-10-01T06:57:48.772Z,21.38
2022-10-01T06:58:42.398Z,21.44
2022-10-01T06:59:36.012Z,21.48
2022-10-01T07:00:29.645Z,21.40
2022-10-01T07:01:23.450Z,21.43
2022-10-01T07:02:17.040Z,21.50
2022-10-01T07:03:10.609Z,21.45
2022-10-01T07:04:04.244Z,21.47
2022-10-01T07:04:57.901Z,21.48
2022-10-01T07:05:51.611Z,21.50
2022-10-01T07:06:45.257Z,21.55
2022-10-01T07:07:38.968Z,21.50
2022-10-01T07:08:32.567Z,21.45
2022-10-01T07:09:26.173Z,21.55
2022-10-01T07:10:19.795Z,21.47
2022-10-01T07:11:13.419Z,21.50
2022-10-01T07:12:07.058Z,21.55
2022-10-01T07:13:00.669Z,21.48
2022-10-01T07:13:54.791Z,21.48
2022-10-01T07:14:48.012Z,21.51
2022-10-01T07:15:41.643Z,21.53
2022-10-01T07:16:35.322Z,21.51
2022-10-01T07:17:28.886Z,21.45
2022-10-01T07:18:22.504Z,21.35
2022-10-01T07:19:16.152Z,21.45
2022-10-01T07:19:59.965Z,21.47
2022-10-01T07:20:53.551Z,21.48
2022-10-01T07:21:47.176Z,21.43
2022-10-01T07:22:40.809Z,21.41
2022-10-01T07:23:34.422Z,21.35
2022-10-01T07:24:28.052Z,21.53
2022-10-01T07:25:21.666Z,21.38
2022-10-01T07:26:15.287Z,21.47
2022-10-01T07:27:08.919Z,21.47
2022-10-01T07:28:02.588Z,21.44
2022-10-01T07:28:56.462Z,21.47
2022-10-01T07:29:50.104Z,21.45
2022-10-01T07:30:43.712Z,21.37
2022-10-01T07:31:38.916Z,21.37
2022-10-01T07:32:22.887Z,21.35
2022-10-01T07:33:18.425Z,21.45
2022-10-01T07:34:13.056Z,21.40
2022-10-01T07:35:08.604Z,21.37
2022-10-01T07:36:03.249Z,21.38
2022-10-01T07:36:58.814Z,21.38
2022-10-01T07:37:54.360Z,21.45
2022-10-01T07:38:48.947Z,21.34
2022-10-01T07:39:43.667Z,21.40
2022-10-01T07:40:38.437Z,21.45
2022-10-01T07:41:33.921Z,21.44
2022-10-01T07:42:28.243Z,21.38
2022-10-01T07:43:23.834Z,21.41
2022-10-01T07:44:19.056Z,21.38
2022-10-01T07:45:14.600Z,21.47
2022-10-01T07:46:10.239Z,21.41
2022-10-01T07:47:05.680Z,21.34
2022-10-01T07:48:01.220Z,21.44
2022-10-01T07:48:56.764Z,21.47
2022-10-01T07:49:50.627Z,21.47
2022-10-01T07:50:44.346Z,21.48
2022-10-01T07:51:38.984Z,21.51
2022-10-01T07:52:33.529Z,21.51
2022-10-01T07:53:29.072Z,21.44
2022-10-01T07:54:23.753Z,21.43
2022-10-01T07:55:18.398Z,21.51
2022-10-01T07:56:13.053Z,21.43
2022-10-01T07:57:06.778Z,21.50
2022-10-01T07:58:00.600Z,21.51
2022-10-01T07:58:44.285Z,21.53
2022-10-01T07:59:38.851Z,21.56
2022-10-01T08:00:32.674Z,21.56
2022-10-01T08:01:26.735Z,21.55
2022-10-01T08:02:21.200Z,21.44
2022-10-01T08:03:15.771Z,21.50
2022-10-01T08:04:09.509Z,21.55
2022-10-01T08:05:04.251Z,21.51
2022-10-01T08:05:59.792Z,21.47
2022-10-01T08:06:54.414Z,21.53
2022-10-01T08:07:49.123Z,21.50
2022-10-01T08:08:43.879Z,21.47
2022-10-01T08:09:38.505Z,21.47
2022-10-01T08:10:32.337Z,21.51
2022-10-01T08:11:26.898Z,21.51
2022-10-01T08:12:22.458Z,21.53
2022-10-01T08:13:07.110Z,21.47
2022-10-01T08:14:01.839Z,21.48
2022-10-01T08:14:57.362Z,21.45
2022-10-01T08:15:51.947Z,21.45
2022-10-01T08:16:45.754Z,21.51
2022-10-01T08:17:39.372Z,21.50
2022-10-01T08:18:34.119Z,21.53
2022-10-01T08:19:28.897Z,21.51
2022-10-01T08:20:24.443Z,21.43
2022-10-01T08:21:19.104Z,21.48
2022-10-01T08:22:13.832Z,21.40
2022-10-01T08:22:57.629Z,21.53
2022-10-01T08:23:53.234Z,21.51
2022-10-01T08:24:46.826Z,21.45
2022-10-01T08:25:42.368Z,21.55
2022-10-01T08:26:37.903Z,21.50
2022-10-01T08:27:33.444Z,21.45
2022-10-01T08:28:29.045Z,21.47
2022-10-01T08:29:24.557Z,21.47
2022-10-01T08:30:19.115Z,21.51
2022-10-01T08:31:13.672Z,21.50
2022-10-01T08:32:08.436Z,21.45
2022-10-01T08:33:03.038Z,21.35
2022-10-01T08:33:57.784Z,21.47
2022-10-01T08:34:41.624Z,21.38
2022-10-01T08:35:37.169Z,21.41
2022-10-01T08:36:32.709Z,21.40
2022-10-01T08:37:27.370Z,21.34
2022-10-01T08:38:22.013Z,21.41
2022-10-01T08:39:16.781Z,21.41
2022-10-01T08:40:11.529Z,21.47
2022-10-01T08:41:06.277Z,21.47
2022-10-01T08:42:01.367Z,21.50
2022-10-01T08:42:57.394Z,21.48
2022-10-01T08:43:52.060Z,21.51
2022-10-01T08:44:47.620Z,21.50
2022-10-01T08:45:42.250Z,21.55
2022-10-01T08:46:36.851Z,21.48
2022-10-01T08:47:32.403Z,21.50
2022-10-01T08:48:27.010Z,21.53
2022-10-01T08:49:21.569Z,21.53
2022-10-01T08:50:16.200Z,21.48
2022-10-01T08:51:10.859Z,21.51
2022-10-01T08:52:05.404Z,21.55
2022-10-01T08:53:00.945Z,21.55
2022-10-01T08:53:56.492Z,21.48
2022-10-01T08:54:50.373Z,21.45
2022-10-01T08:55:45.000Z,21.58
2022-10-01T08:56:39.674Z,21.53
2022-10-01T08:57:35.211Z,21.47
2022-10-01T08:58:29.755Z,21.48
2022-10-01T08:59:27.394Z,21.50
2022-10-01T09:00:20.941Z,21.48
2022-10-01T09:01:16.473Z,21.41
2022-10-01T09:02:11.931Z,21.50
2022-10-01T09:03:05.775Z,21.53
2022-10-01T09:04:00.525Z,21.48
2022-10-01T09:04:58.910Z,21.35
2022-10-01T09:05:49.625Z,21.45
2022-10-01T09:06:45.168Z,21.53
2022-10-01T09:07:39.088Z,21.53
2022-10-01T09:08:33.738Z,21.51
2022-10-01T09:09:29.286Z,21.51
2022-10-01T09:10:24.454Z,21.45
2022-10-01T09:11:20.004Z,21.48
2022-10-01T09:12:15.559Z,21.45
2022-10-01T09:13:10.263Z,21.56
2022-10-01T09:13:54.026Z,21.51
2022-10-01T09:14:48.642Z,21.56
2022-10-01T09:15:44.203Z,21.59
2022-10-01T09:16:38.990Z,21.53
2022-10-01T09:17:33.474Z,21.53
2022-10-01T09:18:27.369Z,21.59
2022-10-01T09:19:22.015Z,21.55
2022-10-01T09:20:16.559Z,21.62
2022-10-01T09:21:12.099Z,21.62
2022-10-01T09:21:56.776Z,21.67
2022-10-01T09:22:52.318Z,21.59
2022-10-01T09:23:47.860Z,21.58
2022-10-01T09:24:42.451Z,21.66
2022-10-01T09:25:38.000Z,21.60
2022-10-01T09:26:33.544Z,21.59
2022-10-01T09:27:27.296Z,21.66
2022-10-01T09:28:22.912Z,21.59
2022-10-01T09:29:18.390Z,21.58
2022-10-01T09:30:12.969Z,21.55
2022-10-01T09:31:07.645Z,21.55
2022-10-01T09:32:02.153Z,21.48
2022-10-01T09:32:56.736Z,21.53
2022-10-01T09:33:52.268Z,21.55
2022-10-01T09:34:45.987Z,21.51
2022-10-01T09:35:41.523Z,21.51
2022-10-01T09:36:36.125Z,21.51
2022-10-01T09:37:31.369Z,21.53
2022-10-01T09:38:26.130Z,21.56
2022-10-01T09:39:20.883Z,21.58
2022-10-01T09:40:15.500Z,21.51
2022-10-01T09:41:09.344Z,21.45
2022-10-01T09:42:04.886Z,21.55
2022-10-01T09:42:58.532Z,21.60
2022-10-01T09:43:53.309Z,21.51
2022-10-01T09:44:48.843Z,21.48
2022-10-01T09:45:44.470Z,21.43
2022-10-01T09:46:39.068Z,21.47
2022-10-01T09:47:33.595Z,21.53
2022-10-01T09:48:27.345Z,21.48
2022-10-01T09:49:21.999Z,21.53
2022-10-01T09:50:16.718Z,21.51
2022-10-01T09:51:11.367Z,21.45
2022-10-01T09:52:06.907Z,21.47
2022-10-01T09:53:01.576Z,21.45
2022-10-01T09:53:56.344Z,21.43
2022-10-01T09:54:51.080Z,21.43
2022-10-01T09:55:45.726Z,21.45
2022-10-01T09:56:41.264Z,21.43
2022-10-01T09:57:35.948Z,21.34
2022-10-01T09:58:29.660Z,21.40
2022-10-01T09:59:23.399Z,21.43
2022-10-01T10:00:18.949Z,21.37
2022-10-01T10:01:13.495Z,21.37
2022-10-01T10:02:08.299Z,21.38
2022-10-01T10:03:02.890Z,21.35
2022-10-01T10:03:58.337Z,21.40
2022-10-01T10:04:52.946Z,21.40
2022-10-01T10:05:36.591Z,21.34
2022-10-01T10:06:32.564Z,21.35
2022-10-01T10:07:27.697Z,21.43
2022-10-01T10:08:22.276Z,21.35
2022-10-01T10:09:16.825Z,21.35
2022-10-01T10:10:11.372Z,21.32
2022-10-01T10:11:06.013Z,21.45
2022-10-01T10:12:01.552Z,21.43
2022-10-01T10:12:57.091Z,21.41
2022-10-01T10:13:51.785Z,21.41
2022-10-01T10:14:47.350Z,21.43
2022-10-01T10:15:42.962Z,21.37
2022-10-01T10:16:38.072Z,21.40
2022-10-01T10:17:32.156Z,21.40
2022-10-01T10:18:27.684Z,21.35
2022-10-01T10:19:22.367Z,21.43
2022-10-01T10:20:17.013Z,21.38
2022-10-01T10:21:11.754Z,21.41
2022-10-01T10:22:06.402Z,21.38
2022-10-01T10:23:01.042Z,21.41
2022-10-01T10:23:54.746Z,21.41
2022-10-01T10:24:50.293Z,21.40
2022-10-01T10:25:44.978Z,21.38
2022-10-01T10:26:39.942Z,21.43
2022-10-01T10:27:33.451Z,21.37
2022-10-01T10:28:29.092Z,21.41
2022-10-01T10:29:23.637Z,21.43
2022-10-01T10:30:18.212Z,21.41
2022-10-01T10:31:13.819Z,21.45
2022-10-01T10:32:07.483Z,21.38
2022-10-01T10:32:51.415Z,21.43
2022-10-01T10:33:46.064Z,21.40
2022-10-01T10:34:39.957Z,21.43
2022-10-01T10:35:34.496Z,21.40
2022-10-01T10:36:29.045Z,21.35
2022-10-01T10:37:23.591Z,21.43
2022-10-01T10:38:19.125Z,21.40
2022-10-01T10:39:12.872Z,21.40
2022-10-01T10:40:07.486Z,21.38
2022-10-01T10:41:03.036Z,21.40
2022-10-01T10:41:58.586Z,21.40
2022-10-01T10:42:53.240Z,21.37
2022-10-01T10:43:48.777Z,21.40
2022-10-01T10:44:43.430Z,21.35
2022-10-01T10:45:37.978Z,21.40
2022-10-01T10:46:32.722Z,21.35
2022-10-01T10:47:27.260Z,21.38
2022-10-01T10:48:21.927Z,21.35
2022-10-01T10:49:16.546Z,21.37
2022-10-01T10:50:11.213Z,21.37
2022-10-01T10:51:06.048Z,21.43
2022-10-01T10:52:01.318Z,21.37
2022-10-01T10:52:55.969Z,21.43
2022-10-01T10:53:51.507Z,21.41
2022-10-01T10:54:47.046Z,21.45
2022-10-01T10:55:42.586Z,21.48
2022-10-01T10:56:37.444Z,21.43
2022-10-01T10:57:31.889Z,21.40
2022-10-01T10:58:25.834Z,21.45
2022-10-01T10:59:19.624Z,21.41
2022-10-01T11:00:14.249Z,21.44
2022-10-01T11:01:08.928Z,21.48
2022-10-01T11:02:04.642Z,21.40
2022-10-01T11:02:58.091Z,21.45
2022-10-01T11:03:53.460Z,21.41
2022-10-01T11:04:48.987Z,21.41
2022-10-01T11:05:43.674Z,21.40
2022-10-01T11:06:38.412Z,21.35
2022-10-01T11:07:33.073Z,21.35
2022-10-01T11:08:27.042Z,21.43
2022-10-01T11:09:20.717Z,21.35
2022-10-01T11:10:14.540Z,21.43
2022-10-01T11:11:09.105Z,21.38
2022-10-01T11:12:03.753Z,21.38
2022-10-01T11:12:58.484Z,21.40
2022-10-01T11:13:53.069Z,21.41
2022-10-01T11:14:47.790Z,21.41
2022-10-01T11:15:43.422Z,21.35
2022-10-01T11:16:38.170Z,21.45
2022-10-01T11:17:33.545Z,21.48
2022-10-01T11:18:29.101Z,21.51
2022-10-01T11:19:23.725Z,21.47
2022-10-01T11:20:21.020Z,21.47
2022-10-01T11:21:13.466Z,21.47
2022-10-01T11:22:09.018Z,21.48
2022-10-01T11:23:04.577Z,21.48
2022-10-01T11:23:59.255Z,21.56
2022-10-01T11:24:54.021Z,21.53
2022-10-01T11:25:49.561Z,21.41
2022-10-01T11:26:44.309Z,21.55
2022-10-01T11:27:38.855Z,21.56
2022-10-01T11:28:33.507Z,21.53
2022-10-01T11:29:27.193Z,21.56
2022-10-01T11:30:21.771Z,21.48
2022-10-01T11:31:16.328Z,21.48